Time;durP1;ratioP1;P1;durP2;ratioP2;P2;SDS_P1;SDS_P2;PMS_P1;PMS_P2;Temp;Humidity;BMP_temperature;BMP_pressure;BME280_temperature;BME280_humidity;BME280_pressure;Samples;Min_cycle;Max_cycle;Signal;HPM_P1;HPM_P2
2022/06/26 00:01:01;;;;;;;1.38;1.08;;;22.40;99.90;;;;;;5033414;28;20446;-89
2022/06/26 00:03:28;;;;;;;1.65;1.13;;;22.40;99.90;;;;;;5033272;28;20504;-90
2022/06/26 00:05:55;;;;;;;6.55;1.30;;;22.30;99.90;;;;;;5033300;28;20029;-90
2022/06/26 00:08:21;;;;;;;2.40;1.02;;;22.30;99.90;;;;;;5034517;28;20026;-89
2022/06/26 00:10:48;;;;;;;3.55;1.23;;;22.30;99.90;;;;;;5033223;28;20091;-89
2022/06/26 00:13:14;;;;;;;3.72;1.35;;;22.30;99.90;;;;;;5033121;28;20033;-89
2022/06/26 00:15:40;;;;;;;5.03;1.30;;;22.30;99.90;;;;;;5034404;28;20520;-89
2022/06/26 00:18:06;;;;;;;2.33;1.08;;;22.30;99.90;;;;;;5033075;28;20124;-89
2022/06/26 00:20:32;;;;;;;2.70;1.42;;;22.30;99.90;;;;;;5034681;28;20038;-89
2022/06/26 00:22:58;;;;;;;2.70;1.23;;;22.30;99.90;;;;;;5034374;28;20036;-88
2022/06/26 00:25:24;;;;;;;2.05;1.50;;;22.30;99.90;;;;;;5032955;28;20469;-88
2022/06/26 00:27:50;;;;;;;2.88;1.80;;;22.30;99.90;;;;;;5032889;28;20076;-88
2022/06/26 00:30:16;;;;;;;2.30;1.10;;;22.30;99.90;;;;;;5033141;28;20064;-87
2022/06/26 00:32:42;;;;;;;1.70;1.15;;;22.30;99.90;;;;;;5032703;28;20029;-88
2022/06/26 00:35:08;;;;;;;1.50;1.00;;;22.30;99.90;;;;;;5032673;28;20053;-88
2022/06/26 00:37:34;;;;;;;2.65;0.90;;;22.30;99.90;;;;;;5049372;28;20565;-88
2022/06/26 00:40:00;;;;;;;2.03;1.17;;;22.30;99.90;;;;;;5033954;28;20061;-89
2022/06/26 00:42:26;;;;;;;2.47;1.10;;;22.30;99.90;;;;;;5032579;28;20543;-88
2022/06/26 00:44:55;;;;;;;5.90;1.23;;;22.30;99.90;;;;;;5032874;28;20061;-88
2022/06/26 00:47:24;;;;;;;5.55;1.23;;;22.30;99.90;;;;;;5032611;28;20059;-88
2022/06/26 00:49:50;;;;;;;1.88;1.20;;;22.20;99.90;;;;;;5033891;28;20022;-89
2022/06/26 00:52:18;;;;;;;1.48;1.00;;;22.30;99.90;;;;;;5032535;28;20024;-89
2022/06/26 00:54:44;;;;;;;5.65;1.35;;;22.30;99.90;;;;;;5031831;28;20603;-88
2022/06/26 00:57:10;;;;;;;3.28;1.30;;;22.30;99.90;;;;;;5033783;28;20049;-89
2022/06/26 00:59:36;;;;;;;3.60;2.28;;;22.30;99.90;;;;;;5032712;28;20392;-89
2022/06/26 01:02:02;;;;;;;13.70;9.85;;;22.20;99.90;;;;;;5032662;28;20026;-89
2022/06/26 01:04:28;;;;;;;7.75;5.00;;;22.20;99.90;;;;;;5032625;28;20068;-89
2022/06/26 01:06:55;;;;;;;6.72;4.32;;;22.30;99.90;;;;;;5032653;28;20022;-88
2022/06/26 01:09:21;;;;;;;5.28;2.60;;;22.20;99.90;;;;;;5032490;28;20022;-89
2022/06/26 01:11:47;;;;;;;11.98;5.95;;;22.20;99.90;;;;;;5032228;28;20079;-88
2022/06/26 01:14:13;;;;;;;7.35;3.65;;;22.20;99.90;;;;;;5033378;28;20040;-89
2022/06/26 01:16:39;;;;;;;4.15;2.85;;;22.30;99.90;;;;;;5033346;28;20412;-88
2022/06/26 01:19:07;;;;;;;5.15;1.92;;;22.20;99.90;;;;;;5033364;28;20025;-89
2022/06/26 01:21:33;;;;;;;3.75;2.05;;;22.20;99.90;;;;;;5032130;28;20107;-88
2022/06/26 01:24:00;;;;;;;4.45;2.30;;;22.20;99.90;;;;;;5033222;28;20426;-88
2022/06/26 01:26:26;;;;;;;2.83;1.67;;;22.20;99.90;;;;;;5032136;28;20025;-88
2022/06/26 01:28:53;;;;;;;2.65;1.63;;;22.20;99.90;;;;;;5031968;28;20175;-88
2022/06/26 01:31:19;;;;;;;4.82;1.85;;;22.20;99.90;;;;;;5032018;28;20044;-88
2022/06/26 01:33:49;;;;;;;3.53;1.35;;;22.20;99.90;;;;;;5032172;28;20069;-88
2022/06/26 01:36:15;;;;;;;3.92;1.60;;;22.20;99.90;;;;;;5031721;28;20054;-88
2022/06/26 01:38:41;;;;;;;4.32;1.40;;;22.20;99.90;;;;;;5031914;28;20029;-88
2022/06/26 01:41:07;;;;;;;2.35;1.38;;;22.20;99.90;;;;;;5031937;28;20047;-88
2022/06/26 01:43:35;;;;;;;3.17;1.50;;;22.20;99.90;;;;;;5048425;28;20504;-88
2022/06/26 01:46:01;;;;;;;3.38;1.30;;;22.10;99.90;;;;;;5031817;28;20384;-87
2022/06/26 01:48:28;;;;;;;2.75;1.40;;;22.20;99.90;;;;;;5031797;28;20111;-88
2022/06/26 01:50:56;;;;;;;3.92;1.60;;;22.10;99.90;;;;;;5031696;28;20112;-87
2022/06/26 01:53:22;;;;;;;5.50;1.33;;;22.10;99.90;;;;;;5031759;28;20021;-88
2022/06/26 01:55:48;;;;;;;1.88;1.20;;;22.10;99.90;;;;;;5031759;28;20052;-88
2022/06/26 01:58:14;;;;;;;2.53;1.30;;;22.10;99.90;;;;;;5031719;28;20021;-88
2022/06/26 02:00:42;;;;;;;1.95;1.20;;;22.10;99.90;;;;;;5031735;28;20029;-88
2022/06/26 02:03:08;;;;;;;3.95;1.20;;;22.10;99.90;;;;;;5031589;28;20084;-88
2022/06/26 02:05:35;;;;;;;2.03;1.25;;;22.10;99.90;;;;;;5035130;28;20485;-87
2022/06/26 02:08:00;;;;;;;2.30;1.10;;;22.10;99.90;;;;;;5035753;28;20021;-88
2022/06/26 02:15:57;;;;;;;1.58;1.13;;;22.10;99.90;;;;;;5037254;28;20075;-87
2022/06/26 02:18:23;;;;;;;2.08;1.08;;;22.10;99.90;;;;;;5035411;28;20435;-87
2022/06/26 02:20:49;;;;;;;4.13;1.05;;;22.10;99.90;;;;;;5035552;28;20025;-87
2022/06/26 02:23:14;;;;;;;1.20;0.85;;;22.10;99.90;;;;;;5035319;28;20067;-87
2022/06/26 02:25:41;;;;;;;1.33;0.85;;;22.10;99.90;;;;;;5035257;28;20022;-88
2022/06/26 02:28:07;;;;;;;5.78;1.20;;;22.10;99.90;;;;;;5035262;28;20021;-87
2022/06/26 02:30:33;;;;;;;1.65;1.00;;;22.10;99.90;;;;;;5035292;28;20079;-87
2022/06/26 02:32:59;;;;;;;2.75;0.98;;;22.00;99.90;;;;;;5035035;28;20377;-87
2022/06/26 02:35:26;;;;;;;2.72;0.85;;;22.00;99.90;;;;;;5036326;28;20042;-87
2022/06/26 02:37:52;;;;;;;3.85;0.93;;;22.00;99.90;;;;;;5035102;28;20036;-87
2022/06/26 02:40:21;;;;;;;2.47;0.85;;;22.00;99.90;;;;;;5036390;28;20030;-87
2022/06/26 02:42:47;;;;;;;2.30;0.90;;;22.00;99.90;;;;;;5034984;28;20036;-87
2022/06/26 02:45:13;;;;;;;4.75;1.00;;;22.00;99.90;;;;;;5036161;28;20018;-87
2022/06/26 02:47:39;;;;;;;2.00;0.98;;;22.00;99.90;;;;;;5035133;28;20036;-87
2022/06/26 02:50:06;;;;;;;3.13;0.93;;;22.00;99.90;;;;;;5035106;28;20040;-87
2022/06/26 02:52:32;;;;;;;2.40;0.73;;;22.00;99.90;;;;;;5034706;28;20496;-87
2022/06/26 02:54:58;;;;;;;3.30;1.10;;;22.00;99.90;;;;;;5036214;28;20487;-87
2022/06/26 02:57:23;;;;;;;1.52;1.08;;;22.00;99.90;;;;;;5034712;28;20097;-87
2022/06/26 02:59:49;;;;;;;1.58;0.93;;;21.90;99.90;;;;;;5034642;28;20049;-87
2022/06/26 03:02:15;;;;;;;2.13;1.00;;;21.90;99.90;;;;;;5034577;28;20075;-87
2022/06/26 03:04:42;;;;;;;2.20;1.00;;;21.90;99.90;;;;;;5034499;28;20022;-87
2022/06/26 03:07:08;;;;;;;4.72;1.15;;;21.90;99.90;;;;;;5034440;28;20485;-87
2022/06/26 03:09:34;;;;;;;4.38;1.20;;;21.90;99.90;;;;;;5035754;28;20017;-87
2022/06/26 03:11:59;;;;;;;3.60;1.10;;;21.90;99.90;;;;;;5034314;28;20033;-87
2022/06/26 03:14:25;;;;;;;1.92;0.90;;;21.90;99.90;;;;;;5034315;28;20048;-87
2022/06/26 03:16:51;;;;;;;2.78;0.77;;;21.90;99.90;;;;;;5034890;28;20029;-87
2022/06/26 03:19:17;;;;;;;2.35;1.20;;;21.90;99.90;;;;;;5034219;28;20469;-87
2022/06/26 03:21:42;;;;;;;1.80;0.90;;;21.90;99.90;;;;;;5035470;28;20025;-87
2022/06/26 03:24:08;;;;;;;1.63;0.93;;;21.90;99.90;;;;;;5034234;28;20378;-86
2022/06/26 03:26:35;;;;;;;4.55;0.80;;;21.90;99.90;;;;;;5034186;28;20465;-87
2022/06/26 03:29:04;;;;;;;1.45;1.05;;;21.90;99.90;;;;;;5034140;28;20026;-86
2022/06/26 03:31:29;;;;;;;1.85;0.82;;;21.90;99.90;;;;;;5035192;28;20029;-87
2022/06/26 03:33:56;;;;;;;3.28;1.02;;;21.80;99.90;;;;;;5034102;28;20026;-87
2022/06/26 03:36:25;;;;;;;1.83;0.85;;;21.80;99.90;;;;;;5034005;28;20045;-86
2022/06/26 03:38:52;;;;;;;5.57;1.00;;;21.80;99.90;;;;;;5033950;28;20022;-87
2022/06/26 03:41:18;;;;;;;1.80;0.77;;;21.80;99.90;;;;;;5035079;28;20531;-87
2022/06/26 03:43:44;;;;;;;2.10;0.90;;;21.80;99.90;;;;;;5034526;28;20490;-86
2022/06/26 03:46:10;;;;;;;0.82;0.70;;;21.80;99.90;;;;;;5035163;28;20025;-86
2022/06/26 03:48:37;;;;;;;2.83;0.95;;;21.80;99.90;;;;;;5033693;28;20032;-86
2022/06/26 03:51:04;;;;;;;2.75;0.80;;;21.80;99.90;;;;;;5034487;28;20026;-87
2022/06/26 03:53:30;;;;;;;0.70;0.60;;;21.80;99.90;;;;;;5033661;28;20025;-86
2022/06/26 03:55:56;;;;;;;2.58;1.05;;;21.80;99.90;;;;;;5034902;28;20030;-87
2022/06/26 03:58:21;;;;;;;3.17;1.08;;;21.80;99.90;;;;;;5033515;28;20079;-86
2022/06/26 04:00:47;;;;;;;2.08;0.70;;;21.80;99.90;;;;;;5033471;28;20021;-87
2022/06/26 04:03:13;;;;;;;3.03;0.80;;;21.80;99.90;;;;;;5033443;28;20112;-87
2022/06/26 04:05:39;;;;;;;2.83;0.98;;;21.80;99.90;;;;;;5033390;28;20029;-87
2022/06/26 04:08:05;;;;;;;1.58;0.77;;;21.80;99.90;;;;;;5033391;28;20032;-86
2022/06/26 04:10:31;;;;;;;1.90;0.75;;;21.80;99.90;;;;;;5033936;28;20025;-87
2022/06/26 04:13:01;;;;;;;3.00;0.88;;;21.80;99.90;;;;;;5033798;28;20421;-86
2022/06/26 04:15:28;;;;;;;3.92;1.00;;;21.80;99.90;;;;;;5034930;28;20079;-86
2022/06/26 04:17:54;;;;;;;2.20;0.75;;;21.70;99.90;;;;;;5033464;28;20116;-86
2022/06/26 04:20:20;;;;;;;3.88;0.80;;;21.80;99.90;;;;;;5034500;28;20542;-87
2022/06/26 04:22:59;;;;;;;3.70;0.90;;;21.80;99.90;;;;;;5034547;28;20110;-86
2022/06/26 04:25:25;;;;;;;1.35;0.70;;;21.80;99.90;;;;;;5034608;28;20021;-86
2022/06/26 04:27:51;;;;;;;2.45;0.80;;;21.80;99.90;;;;;;5032493;28;20112;-87
2022/06/26 04:30:17;;;;;;;1.88;0.80;;;21.70;99.90;;;;;;5032489;28;20103;-86
2022/06/26 04:32:43;;;;;;;1.80;0.80;;;21.80;99.90;;;;;;5032715;28;20021;-86
2022/06/26 04:35:10;;;;;;;3.45;0.90;;;21.70;99.90;;;;;;5032624;28;20043;-86
2022/06/26 04:37:40;;;;;;;2.38;0.73;;;21.70;99.90;;;;;;5034025;28;20060;-87
2022/06/26 04:40:07;;;;;;;6.00;0.80;;;21.70;99.90;;;;;;5032788;28;20024;-87
2022/06/26 04:42:34;;;;;;;1.90;0.80;;;21.70;99.90;;;;;;5032586;28;20048;-87
2022/06/26 04:44:59;;;;;;;1.90;0.70;;;21.70;99.90;;;;;;5034180;28;20436;-87
2022/06/26 04:47:25;;;;;;;3.95;0.80;;;21.70;99.90;;;;;;5032573;28;20108;-86
2022/06/26 04:49:51;;;;;;;1.33;0.88;;;21.70;99.90;;;;;;5032682;28;20116;-87
2022/06/26 04:52:17;;;;;;;1.77;0.90;;;21.70;99.90;;;;;;5032667;28;20053;-86
2022/06/26 04:54:43;;;;;;;2.35;0.75;;;21.70;99.90;;;;;;5033883;28;20033;-87
2022/06/26 04:57:09;;;;;;;3.58;0.70;;;21.70;99.90;;;;;;5032414;28;20099;-87
2022/06/26 04:59:35;;;;;;;3.45;0.77;;;21.70;99.90;;;;;;5032377;28;20025;-86
2022/06/26 05:02:02;;;;;;;3.80;1.00;;;21.70;99.90;;;;;;5033876;28;20028;-87
2022/06/26 05:04:28;;;;;;;2.35;0.90;;;21.70;99.90;;;;;;5033523;28;20071;-87
2022/06/26 05:06:53;;;;;;;3.55;0.93;;;21.70;99.90;;;;;;5033773;28;20494;-86
2022/06/26 05:09:20;;;;;;;2.10;1.00;;;21.70;99.90;;;;;;5032137;28;20028;-86
2022/06/26 05:11:45;;;;;;;2.08;1.00;;;21.70;99.90;;;;;;5033491;28;20101;-86
2022/06/26 05:14:11;;;;;;;3.33;1.13;;;21.60;99.90;;;;;;5032180;28;20171;-87
2022/06/26 05:16:37;;;;;;;1.60;1.00;;;21.60;99.90;;;;;;5032582;28;20033;-86
2022/06/26 05:19:03;;;;;;;1.58;0.98;;;21.70;99.90;;;;;;5032019;28;20060;-86
2022/06/26 05:21:29;;;;;;;1.58;0.90;;;21.70;99.90;;;;;;5032069;28;20030;-86
2022/06/26 05:23:55;;;;;;;3.50;0.90;;;21.60;99.90;;;;;;5032533;28;20036;-87
2022/06/26 05:26:22;;;;;;;3.83;1.00;;;21.60;99.90;;;;;;5033311;28;20026;-87
2022/06/26 05:28:48;;;;;;;4.70;1.00;;;21.60;99.90;;;;;;5033616;28;20361;-87
2022/06/26 05:31:14;;;;;;;1.38;0.82;;;21.60;99.90;;;;;;5032032;28;20388;-87
2022/06/26 05:33:40;;;;;;;1.73;0.90;;;21.60;99.90;;;;;;5033211;28;20032;-87
2022/06/26 05:36:07;;;;;;;1.60;0.85;;;21.60;99.90;;;;;;5031756;28;20049;-87
2022/06/26 05:38:34;;;;;;;1.13;0.60;;;21.60;99.90;;;;;;5031905;28;20029;-87
2022/06/26 05:40:59;;;;;;;2.13;0.80;;;21.60;99.90;;;;;;5034954;28;20029;-87
2022/06/26 05:43:25;;;;;;;5.03;0.90;;;21.60;99.90;;;;;;5035959;28;20079;-87
2022/06/26 05:45:51;;;;;;;1.70;0.55;;;21.60;99.90;;;;;;5037285;28;20017;-87
2022/06/26 05:48:17;;;;;;;2.35;0.90;;;21.60;99.90;;;;;;5037326;28;20018;-87
2022/06/26 05:50:43;;;;;;;1.70;0.77;;;21.70;99.90;;;;;;5035992;28;20029;-87
2022/06/26 05:53:09;;;;;;;2.25;0.82;;;21.60;99.90;;;;;;5035870;28;20033;-87
2022/06/26 05:55:36;;;;;;;1.17;0.82;;;21.60;99.90;;;;;;5037135;28;20026;-87
2022/06/26 05:58:02;;;;;;;3.08;0.70;;;21.60;99.90;;;;;;5035742;28;20116;-87
2022/06/26 06:00:28;;;;;;;2.40;0.60;;;21.60;99.90;;;;;;5037031;28;20030;-87
2022/06/26 06:02:54;;;;;;;0.75;0.60;;;21.70;99.90;;;;;;5036907;28;20032;-87
2022/06/26 06:05:20;;;;;;;1.25;0.88;;;21.70;99.90;;;;;;5036073;28;20021;-86
2022/06/26 06:07:45;;;;;;;1.48;0.77;;;21.70;99.90;;;;;;5035599;28;20565;-87
2022/06/26 06:10:11;;;;;;;1.33;0.90;;;21.70;99.90;;;;;;5035587;28;20021;-86
2022/06/26 06:12:37;;;;;;;3.53;0.60;;;21.70;99.90;;;;;;5035875;28;20489;-87
2022/06/26 06:15:03;;;;;;;1.85;0.77;;;21.70;99.90;;;;;;5036844;28;20025;-87
2022/06/26 06:17:35;;;;;;;0.95;0.60;;;21.70;99.90;;;;;;5035671;28;20476;-86
2022/06/26 06:20:03;;;;;;;1.67;0.60;;;21.70;99.90;;;;;;5035489;28;20045;-87
2022/06/26 06:22:30;;;;;;;1.92;0.80;;;21.70;99.90;;;;;;5035362;28;20087;-86
2022/06/26 06:24:55;;;;;;;5.70;0.70;;;21.80;99.90;;;;;;5035309;28;20034;-87
2022/06/26 06:27:22;;;;;;;2.00;0.80;;;21.80;99.90;;;;;;5035147;28;20044;-87
2022/06/26 06:29:47;;;;;;;1.25;0.85;;;21.80;99.90;;;;;;5035214;28;20315;-87
2022/06/26 06:32:13;;;;;;;2.15;0.80;;;21.70;99.90;;;;;;5036312;28;20025;-87
2022/06/26 06:34:39;;;;;;;1.00;0.70;;;21.80;99.90;;;;;;5034822;28;20485;-87
2022/06/26 06:37:06;;;;;;;1.38;0.68;;;21.70;99.90;;;;;;5035085;28;20034;-87
2022/06/26 06:39:32;;;;;;;1.75;1.00;;;21.70;99.90;;;;;;5035000;28;20033;-86
2022/06/26 06:41:58;;;;;;;2.53;0.82;;;21.70;99.90;;;;;;5036260;28;20028;-87
2022/06/26 06:44:23;;;;;;;2.28;0.70;;;21.80;99.90;;;;;;5034751;28;20112;-86
2022/06/26 06:46:49;;;;;;;1.27;0.90;;;21.70;99.90;;;;;;5034708;28;20025;-87
2022/06/26 06:49:15;;;;;;;1.95;1.00;;;21.80;99.90;;;;;;5036031;28;20021;-87
2022/06/26 06:51:41;;;;;;;1.38;0.80;;;21.70;99.90;;;;;;5033596;28;20029;-87
2022/06/26 06:54:06;;;;;;;5.80;1.05;;;21.80;99.90;;;;;;5034579;28;20025;-87
2022/06/26 06:56:32;;;;;;;2.03;0.80;;;21.80;99.90;;;;;;5034604;28;20029;-87
2022/06/26 06:58:58;;;;;;;1.80;0.77;;;21.80;99.90;;;;;;5034572;28;20026;-87
2022/06/26 07:01:24;;;;;;;1.60;0.90;;;21.90;99.90;;;;;;5035287;28;20492;-87
2022/06/26 07:03:49;;;;;;;2.40;0.80;;;21.80;99.90;;;;;;5034342;28;20033;-87
2022/06/26 07:06:15;;;;;;;1.45;0.80;;;21.80;99.90;;;;;;5034479;28;20381;-86
2022/06/26 07:08:41;;;;;;;1.80;0.88;;;21.80;99.90;;;;;;5035905;28;20107;-87
2022/06/26 07:11:07;;;;;;;1.48;0.80;;;21.80;99.90;;;;;;5035575;28;20029;-87
2022/06/26 07:13:32;;;;;;;2.90;1.00;;;21.90;99.90;;;;;;5034144;28;20175;-87
2022/06/26 07:15:58;;;;;;;1.30;0.70;;;21.90;99.90;;;;;;5034166;28;20056;-87
2022/06/26 07:18:24;;;;;;;1.30;0.90;;;21.90;99.90;;;;;;5035553;28;20369;-87
2022/06/26 07:20:50;;;;;;;2.42;1.15;;;21.80;99.90;;;;;;5034093;28;20439;-87
2022/06/26 07:23:16;;;;;;;0.80;0.80;;;21.90;99.90;;;;;;5034023;28;20067;-87
2022/06/26 07:25:42;;;;;;;1.20;0.85;;;21.90;99.90;;;;;;5034094;28;20057;-87
2022/06/26 07:28:08;;;;;;;2.05;0.88;;;21.90;99.90;;;;;;5034043;28;20455;-87
2022/06/26 07:30:34;;;;;;;1.10;0.77;;;21.90;99.90;;;;;;5034011;28;20022;-87
2022/06/26 07:34:12;;;;;;;1.38;0.90;;;21.90;99.90;;;;;;5033876;28;20480;-87
2022/06/26 07:35:55;;;;;;;1.20;0.70;;;21.90;99.90;;;;;;5034871;28;20034;-87
2022/06/26 07:38:21;;;;;;;1.10;0.73;;;21.90;99.90;;;;;;5035061;28;20533;-87
2022/06/26 07:40:47;;;;;;;0.85;0.75;;;21.90;99.90;;;;;;5035084;28;20057;-87
2022/06/26 07:43:12;;;;;;;1.20;0.70;;;21.90;99.90;;;;;;5033629;28;20037;-87
2022/06/26 07:45:38;;;;;;;1.90;0.70;;;21.90;99.90;;;;;;5033650;28;20079;-87
2022/06/26 07:48:04;;;;;;;1.15;0.82;;;21.90;99.90;;;;;;5033679;28;20026;-87
2022/06/26 07:50:30;;;;;;;1.13;0.80;;;21.90;99.90;;;;;;5033512;28;20021;-87
2022/06/26 07:52:56;;;;;;;1.20;0.80;;;22.00;99.90;;;;;;5034806;28;20025;-87
2022/06/26 07:55:22;;;;;;;1.00;0.80;;;22.00;99.90;;;;;;5033479;28;20120;-87
2022/06/26 07:57:47;;;;;;;0.98;0.68;;;22.00;99.90;;;;;;5033315;28;20112;-87
2022/06/26 08:00:13;;;;;;;1.33;1.00;;;22.00;99.90;;;;;;5033384;28;20060;-87
2022/06/26 08:02:39;;;;;;;1.13;0.70;;;22.00;99.90;;;;;;5033045;28;20061;-87
2022/06/26 08:05:06;;;;;;;2.03;1.00;;;22.00;99.90;;;;;;5034566;28;20044;-87
2022/06/26 08:07:32;;;;;;;0.77;0.70;;;22.00;99.90;;;;;;5033229;28;20100;-87
2022/06/26 08:09:58;;;;;;;0.60;0.60;;;22.00;99.90;;;;;;5033165;28;20026;-87
2022/06/26 08:12:24;;;;;;;0.88;0.65;;;22.00;99.90;;;;;;5033153;28;20027;-87
2022/06/26 08:14:49;;;;;;;0.80;0.60;;;22.10;99.90;;;;;;5034423;28;20030;-87
2022/06/26 08:17:15;;;;;;;1.05;0.80;;;22.10;99.90;;;;;;5033080;28;20032;-87
2022/06/26 08:19:41;;;;;;;1.10;0.80;;;22.10;99.90;;;;;;5034356;28;20025;-87
2022/06/26 08:22:06;;;;;;;1.45;0.80;;;22.10;99.90;;;;;;5033044;28;20032;-87
2022/06/26 08:24:33;;;;;;;2.38;0.80;;;22.20;99.90;;;;;;5032880;28;20053;-87
2022/06/26 08:27:00;;;;;;;1.30;0.80;;;22.10;99.90;;;;;;5032970;28;20021;-87
2022/06/26 08:29:26;;;;;;;1.27;0.60;;;22.20;99.90;;;;;;5034186;28;20431;-87
2022/06/26 08:31:52;;;;;;;1.50;0.70;;;22.20;99.90;;;;;;5033099;28;20377;-87
2022/06/26 08:34:19;;;;;;;1.10;0.70;;;22.20;99.90;;;;;;5032734;28;20103;-87
2022/06/26 08:36:45;;;;;;;0.75;0.70;;;22.20;99.90;;;;;;4996630;28;20034;-87
2022/06/26 08:39:10;;;;;;;0.85;0.80;;;22.20;99.90;;;;;;4996619;28;20030;-87
2022/06/26 08:41:45;;;;;;;0.98;0.60;;;22.20;99.90;;;;;;4996678;28;20022;-87
2022/06/26 08:44:11;;;;;;;1.13;0.80;;;22.30;99.90;;;;;;4996545;28;20486;-87
2022/06/26 08:46:40;;;;;;;1.10;0.93;;;22.30;99.90;;;;;;4996466;28;20022;-87
2022/06/26 08:49:13;;;;;;;1.48;0.70;;;22.30;99.90;;;;;;4996464;28;20481;-87
2022/06/26 08:51:40;;;;;;;1.60;0.73;;;22.40;99.90;;;;;;5014138;28;20049;-87
2022/06/26 08:54:07;;;;;;;0.70;0.70;;;22.40;99.90;;;;;;4996448;28;20414;-88
2022/06/26 08:56:33;;;;;;;1.13;0.60;;;22.40;99.90;;;;;;4996274;28;20072;-87
2022/06/26 08:59:00;;;;;;;2.25;0.80;;;22.40;99.90;;;;;;4996325;28;20081;-87
2022/06/26 09:01:25;;;;;;;1.50;0.73;;;22.50;99.90;;;;;;4996211;28;20040;-87
2022/06/26 09:03:51;;;;;;;2.17;0.70;;;22.50;99.90;;;;;;4996176;28;20026;-87
2022/06/26 09:06:17;;;;;;;0.80;0.77;;;22.60;99.90;;;;;;5012601;28;20022;-87
2022/06/26 09:08:50;;;;;;;0.88;0.60;;;22.60;99.90;;;;;;4996248;28;20034;-87
2022/06/26 09:11:17;;;;;;;0.63;0.60;;;22.60;99.90;;;;;;4996181;28;20068;-87
2022/06/26 09:13:44;;;;;;;1.17;0.70;;;22.70;99.90;;;;;;5012405;28;20133;-87
2022/06/26 09:16:11;;;;;;;0.85;0.70;;;22.70;99.90;;;;;;5013511;28;20068;-87
2022/06/26 09:18:39;;;;;;;2.92;0.75;;;22.70;99.90;;;;;;4996067;28;20485;-87
2022/06/26 09:21:05;;;;;;;1.58;0.70;;;22.80;99.90;;;;;;5012338;28;20027;-87
2022/06/26 09:23:32;;;;;;;3.10;0.70;;;22.80;99.90;;;;;;4995926;28;20025;-87
2022/06/26 09:25:58;;;;;;;1.30;0.70;;;22.80;99.90;;;;;;4995914;28;20088;-87
2022/06/26 09:28:24;;;;;;;2.72;0.70;;;22.90;99.90;;;;;;5013569;28;20366;-87
2022/06/26 09:30:54;;;;;;;1.52;0.68;;;22.90;99.90;;;;;;4995873;28;20116;-87
2022/06/26 09:33:22;;;;;;;8.07;0.88;;;23.00;99.90;;;;;;4995663;28;20117;-86
2022/06/26 09:35:48;;;;;;;3.22;0.88;;;23.20;99.90;;;;;;5025372;28;20382;-87
2022/06/26 09:38:18;;;;;;;4.30;0.95;;;23.30;99.90;;;;;;5033174;28;20472;-87
2022/06/26 09:40:55;;;;;;;1.70;0.73;;;23.30;99.90;;;;;;5031951;28;20025;-86
2022/06/26 09:43:32;;;;;;;2.53;0.90;;;23.20;99.90;;;;;;5033048;28;20104;-87
2022/06/26 09:46:06;;;;;;;37.30;3.40;;;23.40;99.90;;;;;;5031655;28;20362;-87
2022/06/26 09:48:33;;;;;;;9.82;3.10;;;24.00;99.90;;;;;;5032918;28;20028;-88
2022/06/26 09:51:00;;;;;;;6.38;0.90;;;24.50;99.90;;;;;;5032823;28;20029;-88
2022/06/26 09:53:27;;;;;;;7.53;0.80;;;24.80;99.50;;;;;;5031569;28;20028;-88
2022/06/26 09:55:56;;;;;;;4.88;1.10;;;24.90;98.80;;;;;;5031719;28;20052;-86
2022/06/26 09:58:23;;;;;;;5.72;0.80;;;24.70;99.70;;;;;;5033048;28;20033;-87
2022/06/26 10:06:26;;;;;;;3.60;0.68;;;24.00;99.90;;;;;;5033552;28;19916;-87
2022/06/26 10:08:57;;;;;;;5.13;0.90;;;23.90;99.90;;;;;;5033030;28;20029;-87
2022/06/26 10:11:28;;;;;;;2.42;0.80;;;23.80;99.90;;;;;;5031700;28;20026;-87
2022/06/26 10:13:57;;;;;;;7.47;0.95;;;23.70;99.90;;;;;;5031667;28;20033;-87
2022/06/26 10:16:23;;;;;;;3.25;0.70;;;23.70;99.90;;;;;;5031593;28;20057;-87
2022/06/26 10:18:57;;;;;;;3.70;0.88;;;23.60;99.90;;;;;;5031594;28;20057;-87
2022/06/26 10:21:23;;;;;;;2.83;0.90;;;23.60;99.90;;;;;;5031564;28;20029;-87
2022/06/26 10:23:49;;;;;;;2.90;0.60;;;23.60;99.90;;;;;;5031462;28;20029;-87
2022/06/26 10:26:20;;;;;;;1.10;0.70;;;23.60;99.90;;;;;;5034315;28;20017;-86
2022/06/26 10:29:09;;;;;;;3.08;0.80;;;23.60;99.90;;;;;;5035230;28;20026;-86
2022/06/26 10:31:46;;;;;;;1.20;0.70;;;23.60;99.90;;;;;;5036425;28;20491;-86
2022/06/26 10:34:19;;;;;;;0.70;0.60;;;23.60;99.90;;;;;;5036280;28;20022;-86
2022/06/26 10:37:06;;;;;;;2.78;0.57;;;23.60;99.90;;;;;;5035012;28;20121;-86
2022/06/26 10:39:41;;;;;;;1.00;0.65;;;23.60;99.90;;;;;;5036092;28;20032;-87
2022/06/26 10:45:02;;;;;;;1.02;0.73;;;23.60;99.90;;;;;;5036435;28;20450;-86
2022/06/26 10:47:39;;;;;;;1.13;0.65;;;23.60;99.90;;;;;;5034907;28;20021;-86
2022/06/26 10:50:05;;;;;;;1.17;0.60;;;23.60;99.90;;;;;;5036123;28;20022;-86
2022/06/26 10:52:31;;;;;;;1.00;0.52;;;23.60;99.90;;;;;;5034761;28;20021;-86
2022/06/26 10:54:57;;;;;;;1.40;0.70;;;23.60;99.90;;;;;;5035998;28;20017;-86
2022/06/26 10:57:35;;;;;;;2.10;0.80;;;23.70;99.90;;;;;;5034698;28;20033;-86
2022/06/26 11:00:04;;;;;;;0.80;0.50;;;23.70;99.90;;;;;;5034671;28;20025;-86
2022/06/26 11:02:36;;;;;;;1.33;0.60;;;23.70;99.90;;;;;;5035129;28;20025;-86
2022/06/26 11:05:03;;;;;;;1.17;0.68;;;23.70;99.90;;;;;;5035801;28;20021;-86
2022/06/26 11:07:39;;;;;;;0.90;0.65;;;23.80;99.90;;;;;;5034418;28;20021;-86
2022/06/26 11:10:10;;;;;;;1.42;0.93;;;23.80;99.90;;;;;;5036028;28;20447;-86
2022/06/26 11:12:41;;;;;;;0.98;0.75;;;23.80;99.90;;;;;;5034415;28;20022;-86
2022/06/26 11:15:07;;;;;;;1.23;0.73;;;23.80;99.90;;;;;;5034635;28;20036;-86
2022/06/26 11:17:33;;;;;;;1.55;0.70;;;23.80;99.90;;;;;;5035610;28;20033;-86
2022/06/26 11:22:43;;;;;;;1.13;0.60;;;23.80;99.90;;;;;;5035747;28;20040;-86
2022/06/26 11:25:09;;;;;;;0.85;0.65;;;23.80;99.90;;;;;;5034196;28;20025;-86
2022/06/26 11:27:34;;;;;;;1.65;0.73;;;23.80;99.90;;;;;;5034130;28;20079;-86
2022/06/26 11:30:00;;;;;;;0.98;0.55;;;23.80;99.90;;;;;;5034138;28;20116;-86
2022/06/26 11:32:26;;;;;;;1.50;0.60;;;23.80;99.90;;;;;;5033971;28;20476;-86
2022/06/26 11:34:54;;;;;;;0.95;0.60;;;23.70;99.90;;;;;;5033805;28;20056;-86
2022/06/26 11:37:37;;;;;;;0.93;0.55;;;23.70;99.90;;;;;;5033485;28;20550;-86
2022/06/26 11:40:14;;;;;;;1.45;0.60;;;23.70;99.90;;;;;;5035190;28;20073;-86
2022/06/26 11:42:40;;;;;;;1.75;0.80;;;23.70;99.90;;;;;;5034129;28;20095;-86
2022/06/26 11:45:07;;;;;;;2.95;0.60;;;23.70;99.90;;;;;;5033753;28;20026;-86
2022/06/26 11:47:34;;;;;;;1.45;0.50;;;23.70;99.90;;;;;;5035074;28;20385;-86
2022/06/26 11:50:00;;;;;;;1.10;0.70;;;23.70;99.90;;;;;;5035014;28;20025;-86
2022/06/26 11:52:25;;;;;;;1.63;0.60;;;23.70;99.90;;;;;;5033683;28;20022;-87
2022/06/26 11:55:01;;;;;;;1.20;0.65;;;23.70;99.90;;;;;;5033596;28;20037;-86
2022/06/26 11:57:27;;;;;;;1.77;0.70;;;23.70;99.90;;;;;;5033567;28;20392;-86
2022/06/26 11:59:53;;;;;;;2.40;0.70;;;23.70;99.90;;;;;;5034844;28;20025;-86
2022/06/26 12:02:26;;;;;;;0.70;0.70;;;23.70;99.90;;;;;;5033461;28;20026;-86
2022/06/26 12:04:56;;;;;;;2.20;0.82;;;23.70;99.90;;;;;;5033376;28;20413;-86
2022/06/26 12:07:21;;;;;;;1.48;0.70;;;23.70;99.90;;;;;;5034728;28;20115;-86
2022/06/26 12:09:47;;;;;;;2.05;0.75;;;23.70;99.90;;;;;;5033353;28;20017;-86
2022/06/26 12:12:13;;;;;;;1.25;0.50;;;23.80;99.90;;;;;;5033275;28;20033;-86
2022/06/26 12:14:50;;;;;;;2.30;0.60;;;23.70;99.90;;;;;;5033263;28;20041;-86
2022/06/26 12:17:25;;;;;;;1.60;0.73;;;23.80;99.90;;;;;;5034649;28;20480;-86
2022/06/26 12:19:51;;;;;;;1.05;0.68;;;23.80;99.90;;;;;;5034659;28;20022;-86
2022/06/26 12:22:31;;;;;;;1.08;0.63;;;23.80;99.90;;;;;;5033134;28;20025;-86
2022/06/26 12:24:57;;;;;;;1.02;0.60;;;23.80;99.90;;;;;;5032915;28;20136;-86
2022/06/26 12:27:42;;;;;;;1.30;0.63;;;23.80;99.90;;;;;;5034307;28;20025;-86
2022/06/26 12:30:25;;;;;;;0.95;0.60;;;23.80;99.90;;;;;;5034315;28;20025;-86
2022/06/26 12:32:51;;;;;;;2.17;0.57;;;23.80;99.90;;;;;;5034142;28;20034;-86
2022/06/26 12:35:16;;;;;;;1.38;0.55;;;23.90;99.90;;;;;;5032926;28;20041;-86
2022/06/26 12:37:42;;;;;;;0.57;0.40;;;24.00;99.90;;;;;;5034104;28;20025;-87
2022/06/26 12:40:09;;;;;;;0.63;0.60;;;24.00;99.90;;;;;;5033513;28;20029;-86
2022/06/26 12:42:34;;;;;;;0.52;0.50;;;24.00;99.90;;;;;;5032708;28;20664;-86
2022/06/26 12:45:00;;;;;;;1.05;0.52;;;24.10;99.90;;;;;;5032523;28;20120;-86
2022/06/26 12:47:26;;;;;;;1.00;0.60;;;24.10;99.90;;;;;;5032648;28;20439;-86
2022/06/26 12:49:52;;;;;;;1.77;0.80;;;24.20;99.90;;;;;;5031708;28;20018;-86
2022/06/26 12:52:18;;;;;;;4.65;0.63;;;24.20;99.90;;;;;;5033844;28;20022;-85
2022/06/26 12:54:43;;;;;;;1.25;0.57;;;24.30;99.90;;;;;;5032446;28;20120;-86
2022/06/26 12:57:09;;;;;;;0.93;0.50;;;24.30;99.90;;;;;;5032450;28;20115;-86
2022/06/26 12:59:34;;;;;;;1.38;0.50;;;24.40;99.90;;;;;;5032376;28;20037;-86
2022/06/26 13:02:00;;;;;;;0.65;0.50;;;24.50;99.90;;;;;;5033800;28;20030;-86